Logo AVAMET
Benvolgut visitant, si us plau, ingressa Recuperar contrasenya

Benicàssim centre

Dades diàries. Acumulats / Últims 30 dies disponibles

Data Temperatura (°C) Humitat rel. (%) Pressió rel. (hPa) Vent (km/h) Precipitació
Mínima Mitjana Màxima Amplitud
tèrmica
Mínima Mitjana Màxima Mínima Mitjana Màxima Predom. Mitjana Ràfega
màxima
Total
(mm)
Índex-n
Mínima Mitjana Màxima Mínima Mitjana Màxima n
0 a 1
P0 max
mm 5'
Dades mensuals acumulades fins l'últim dia disponible
11/2019 10,4 13,9 17,8 17,5 16,9 21,6 27,2 16,8 26 47 87 996 1.008 1.018   4,6 67,6 0,0
Dades anuals acumulades fins l'últim dia disponible
2019 3,6 15,5 25,6 19,3 11,7 23,4 36,0 32,4 16 65 96 988 1.015 1.035   2,4 96,6 213,2
Últims 30 dies disponibles
12-11-2019 13,7     15,8     19,6 5,9 32 40 50 1.007 1.009 1.011 SSE 8,1 67,6 0,0
11-11-2019 12,6     14,8     18,1 5,5 37 42 57 1.009 1.011 1.013 SE 6,0 46,7 0,0
10-11-2019 12,7     14,2     16,9 4,2 33 40 55 1.008 1.010 1.012 SE 7,5 64,4 0,0
09-11-2019 13,9     15,8     17,9 4,0 37 42 55 1.010 1.013 1.016 SSE 5,3 59,5 0,0
08-11-2019 10,4     14,6     19,2 8,8 26 37 48 1.006 1.009 1.013 S 4,1 40,2 0,0
07-11-2019 11,3     15,8     21,9 10,6 30 52 63 1.004 1.007 1.010 SSE 2,0 29,0 0,0
06-11-2019 13,3     17,1     21,6 8,3 32 43 54 1.009 1.010 1.011 S 1,7 30,6 0,0
05-11-2019 14,8     18,4     21,6 6,8 29 43 60 1.002 1.005 1.009 SSO 4,7 40,2 0,0
04-11-2019 14,9     20,1     25,1 10,2 38 50 66 1.002 1.005 1.007 SO 7,3 43,5 0,0
03-11-2019 15,3     20,4     23,9 8,6 26 45 62 996 1.001 1.007 SSO 5,2 46,7 0,0
02-11-2019 17,8     21,9     27,2 9,4 38 60 87 1.000 1.005 1.010 SSO 3,5 29,0 0,0
01-11-2019 16,3     20,9     26,1 9,8 48 70 85 1.010 1.014 1.018 SSE 0,2 8,0 0,0
31-10-2019 17,1     20,6     25,4 8,3 53 69 84 1.017 1.018 1.019 S 0,2 9,7 0,0
30-10-2019 15,4     19,2     23,7 8,3 62 78 90 1.017 1.018 1.020 SSO 0,0 3,2 0,0
29-10-2019 14,5     18,1     22,7 8,2 73 87 96 1.014 1.015 1.018 S 0,1 9,7 0,2
28-10-2019 14,8     17,7     21,2 6,4 73 84 92 1.015 1.016 1.019 SSO 0,2 9,7 0,0
27-10-2019 14,4     18,2     22,6 8,2 68 83 94 1.019 1.020 1.021 S 0,1 8,0 0,0
26-10-2019 14,2     18,2     23,0 8,8 65 78 90 1.019 1.020 1.021 SE 0,2 9,7 0,0
25-10-2019 14,0     18,6     23,8 9,8 47 62 77 1.019 1.020 1.021 S 0,3 8,0 0,0
24-10-2019 11,3     16,9     22,2 10,9 46 59 79 1.008 1.014 1.020 SSE 1,4 30,6 0,0
23-10-2019 11,4     15,4     21,3 9,9 42 74 95 1.003 1.005 1.008 S 1,9 29,0 0,2
22-10-2019 13,8     15,4     17,7 3,9 65 82 92 1.002 1.009 1.017 SE 4,0 54,7 25,8 0,42 1,00
21-10-2019 13,2     16,5     20,4 7,2 56 62 68 1.012 1.015 1.017 ESE 1,5 20,9 0,0
20-10-2019 15,0     18,9     21,5 6,5 46 68 88 1.003 1.006 1.012 SSO 3,7 40,2 0,4
19-10-2019 16,8     21,6     27,8 11,0 36 71 87 1.005 1.007 1.011 SO 3,4 48,3 0,0
18-10-2019 16,6     20,6     25,7 9,1 57 68 77 1.011 1.013 1.015 SSE 0,8 11,3 0,0
17-10-2019 16,0     20,0     24,4 8,4 55 68 82 1.014 1.015 1.016 ESE 0,7 12,9 0,0
16-10-2019 15,1     20,0     23,8 8,7 36 53 69 1.015 1.017 1.018 ESE 1,3 16,1 0,0
15-10-2019 14,5     19,8     23,0 8,5 34 45 86 1.010 1.015 1.018 S 2,9 32,2 0,0
14-10-2019 19,4     22,0     25,7 6,3 61 80 90 1.009 1.012 1.015 SSE 1,1 16,1 0,6
Últims 13 mesos disponibles
10/2019 11,3 16,7 20,8 20,4 17,7 24,4 27,9 16,6 45 71 87 1.005 1.015 1.020 S 1,4 54,7 27,4
09/2019 16,2 20,7 23,2 23,9 22,1 27,7 32,1 15,9 46 70 83 1.008 1.016 1.024 SE 3,1 59,5 73,8
08/2019 18,0 22,9 25,6 26,5 27,0 30,5 35,2 17,2 51 71 83 1.009 1.014 1.019 SSE 1,8 53,1 19,2
07/2019 21,8 23,2 25,4 27,0 28,5 30,9 33,6 11,8 47 65 79 1.004 1.012 1.020 SSE 1,8 45,1 13,2
06/2019 13,7 18,8 23,1 22,7 22,2 26,8 36,0 22,3 40 63 79 1.006 1.014 1.020 SE 2,5 40,2 0,0
05/2019 10,2 14,8 17,9 18,5 19,1 22,4 28,8 18,6 48 65 83 1.003 1.014 1.023 S 1,9 56,3 14,8
04/2019 7,0 11,8 14,6 15,4 15,7 19,4 26,4 19,4 45 64 88 997 1.011 1.024 S 4,1 56,3 48,6
03/2019 8,0 10,1 12,4 14,4 13,2 19,0 24,3 16,3 41 60 81 1.008 1.021 1.028 SSE 1,8 49,9 13,2
02/2019 4,4 7,7 11,4 11,7 11,7 16,4 20,7 16,3 30 67 86 991 1.022 1.033 SSO 1,7 96,6 0,2
01/2019 3,6 7,5 10,9 11,5 12,1 16,0 22,3 18,7 35 59 84 998 1.017 1.029 S 2,6 70,8 2,8
12/2018 6,3 9,6 12,2 12,9 14,2 17,6 22,5 16,2 48 75 90 1.006 1.023 1.029 SSO 0,7 59,5 4,8
11/2018 8,0 11,7 16,6 14,7 14,7 18,6 22,2 14,2 54 73 88 1.000 1.013 1.022 SSE 2,1 53,1 105,4
10/2018 7,6 16,4 19,6 19,1 14,6 23,5 28,7 21,1 36 71 90 1.002 1.014 1.024 3,0 67,6 170,6
Tots els anys disponibles
2018 3,4 14,9 27,0 18,5 9,1 22,4 34,7 31,3 36 69 90 998 1.016 1.034 ENE 2,2 77,2 514,8
2017 4,3 9,7 17,9 13,2 9,1 17,2 27,0 22,7 29 58 84 994 1.020 1.034 NW 2,1 82,1 247,0
2016 3,8 15,4 24,9 18,6 11,1 22,2 32,9 29,1 2,3 70,8 409,2
2015 2,6 15,3 22,6 18,7 20,9 22,5 34,8 32,2 2,6 83,7 450,6
Temperatura (°C)
Humitat relativa (%)
Velocitat del vent i ràfega màxima (km/h)
Direcció del vent (°)
Pressió (hPa)
Precipitació (mm)
Nota sobre les dades: s'avisa a l'usuari de la provisionalitat i no oficialitat d'aquestes dades
Logo AVAMET blanc
Web allotjada a Sollutia
Llicència de Creative CommonsLa web d'AVAMET i els seus continguts estan subjectes a una llicència de
Reconeixement - No Comercial - Compartir igual
Últimes estacions: Xàbia - Alt de la Granadella (Soci), Villena - Sierra de Salinas (Soci), Sueca - Centre (Inforatge), Xàbia - La Plana (Soci), Banyeres de Mariola - Molí Sol (Soci), Villena - Villa Ventín (Soci), Benissa - Convent (Soci), - - -